EDDF/FRA METAR and TAF weather

Enter ICAO airport designator
Station Type Date Time Source
EDDF METAR 2019/08/22 02:20 UTC NOAA

EDDF 220220Z 07005KT CAVOK 13/10 Q1026 NOSIG


Station Type Date Time Source
EDDF Decoded METAR 2019/08/22 02:20 UTC NOAA

Station name not available
Aug 21, 2019 - 10:20 PM EDT / 2019.08.22 0220 UTC
Wind: from the ENE (070 degrees) at 6 MPH (5 KT):0
Visibility: greater than 7 mile(s):0
Temperature: 55 F (13 C)
Dew Point: 50 F (10 C)
Relative Humidity: 81%
Pressure (altimeter): 30.30 in. Hg (1026 hPa)
ob: EDDF 220220Z 07005KT CAVOK 13/10 Q1026 NOSIG
cycle: 2

Station Type Date Time Source
EDDF TAF 2019/08/21 18:27 UTC NOAA

TAF TAF EDDF 211700Z 2118/2224 05004KT CAVOK

Example: see airport list